createdAt,value
2022-10-26T00:00:01.039Z,411.67
2022-10-26T00:01:01.035Z,413.31
2022-10-26T00:02:01.115Z,405.98
2022-10-26T00:03:01.013Z,409.15
2022-10-26T00:04:01.024Z,409.42
2022-10-26T00:05:00.985Z,410.43
2022-10-26T00:06:00.975Z,412.95
2022-10-26T00:07:00.980Z,411.13
2022-10-26T00:08:00.964Z,409.73
2022-10-26T00:09:00.953Z,409.79
2022-10-26T00:10:00.952Z,403.90
2022-10-26T00:11:00.923Z,405.31
2022-10-26T00:12:00.941Z,402.77
2022-10-26T00:13:00.901Z,404.57
2022-10-26T00:14:00.892Z,403.03
2022-10-26T00:15:00.895Z,407.39
2022-10-26T00:17:00.860Z,407.04
2022-10-26T00:18:00.840Z,409.02
2022-10-26T00:19:00.846Z,406.54
2022-10-26T00:20:00.821Z,402.32
2022-10-26T00:21:00.833Z,405.42
2022-10-26T00:22:00.798Z,405.72
2022-10-26T00:23:00.805Z,405.38
2022-10-26T00:24:00.787Z,409.93
2022-10-26T00:25:01.681Z,402.66
2022-10-26T00:26:00.759Z,409.00
2022-10-26T00:27:00.765Z,404.15
2022-10-26T00:28:00.728Z,408.56
2022-10-26T00:29:00.723Z,401.93
2022-10-26T00:30:00.705Z,401.95
2022-10-26T00:31:00.697Z,396.24
2022-10-26T00:32:00.702Z,402.20
2022-10-26T00:33:00.684Z,401.82
2022-10-26T00:34:00.667Z,406.81
2022-10-26T00:35:10.441Z,404.84
2022-10-26T00:36:01.664Z,401.80
2022-10-26T00:37:00.658Z,401.02
2022-10-26T00:38:00.657Z,400.10
2022-10-26T00:39:00.620Z,404.95
2022-10-26T00:40:00.625Z,399.45
2022-10-26T00:41:00.592Z,406.03
2022-10-26T00:42:01.178Z,401.33
2022-10-26T00:43:00.565Z,399.92
2022-10-26T00:44:00.560Z,400.23
2022-10-26T00:45:00.557Z,399.97
2022-10-26T00:46:00.561Z,404.49
2022-10-26T00:47:00.528Z,401.40
2022-10-26T00:48:00.530Z,404.79
2022-10-26T00:49:00.503Z,401.77
2022-10-26T00:50:00.488Z,407.08
2022-10-26T00:51:00.481Z,405.76
2022-10-26T00:52:00.463Z,409.63
2022-10-26T00:53:00.459Z,403.52
2022-10-26T00:54:00.458Z,404.39
2022-10-26T00:55:00.439Z,402.08
2022-10-26T00:56:00.433Z,399.93
2022-10-26T00:57:00.410Z,401.88
2022-10-26T00:58:00.399Z,401.33
2022-10-26T00:59:00.417Z,400.14
2022-10-26T01:00:00.375Z,398.32
2022-10-26T01:01:00.373Z,397.55
2022-10-26T01:02:00.353Z,398.18
2022-10-26T01:03:00.350Z,397.70
2022-10-26T01:04:00.465Z,400.22
2022-10-26T01:05:00.707Z,403.33
2022-10-26T01:06:00.341Z,399.90
2022-10-26T01:07:00.367Z,399.97
2022-10-26T01:08:00.305Z,400.36
2022-10-26T01:09:00.283Z,411.09
2022-10-26T01:10:00.288Z,409.14
2022-10-26T01:11:00.268Z,407.02
2022-10-26T01:12:00.270Z,408.67
2022-10-26T01:13:00.288Z,403.41
2022-10-26T01:14:00.220Z,406.62
2022-10-26T01:15:00.216Z,404.92
2022-10-26T01:16:00.213Z,401.05
2022-10-26T01:17:00.233Z,406.02
2022-10-26T01:18:00.181Z,401.24
2022-10-26T01:19:00.178Z,406.55
2022-10-26T01:20:01.121Z,401.21
2022-10-26T01:21:00.164Z,402.32
2022-10-26T01:22:00.137Z,400.27
2022-10-26T01:23:00.136Z,402.57
2022-10-26T01:24:00.117Z,401.31
2022-10-26T01:25:00.110Z,401.19
2022-10-26T01:26:00.093Z,403.92
2022-10-26T01:27:00.098Z,402.35
2022-10-26T01:28:00.090Z,403.05
2022-10-26T01:29:00.057Z,407.97
2022-10-26T01:30:00.047Z,404.47
2022-10-26T01:31:00.038Z,408.91
2022-10-26T01:32:00.040Z,403.54
2022-10-26T01:33:00.026Z,399.39
2022-10-26T01:34:00.005Z,396.11
2022-10-26T01:34:59.993Z,400.05
2022-10-26T01:35:59.981Z,400.12
2022-10-26T01:36:59.968Z,397.92
2022-10-26T01:38:00.680Z,398.34
2022-10-26T01:38:59.947Z,400.11
2022-10-26T01:39:59.931Z,403.87
2022-10-26T01:40:59.931Z,405.37
2022-10-26T01:41:59.914Z,402.58
2022-10-26T01:43:00.213Z,406.31
2022-10-26T01:43:59.895Z,409.64
2022-10-26T01:44:59.889Z,408.13
2022-10-26T01:45:59.866Z,404.21
2022-10-26T01:46:59.869Z,405.03
2022-10-26T01:47:59.855Z,403.09
2022-10-26T01:48:59.855Z,402.52
2022-10-26T01:49:59.825Z,407.24
2022-10-26T01:50:59.820Z,400.19
2022-10-26T01:51:59.798Z,405.91
2022-10-26T01:52:59.796Z,404.45
2022-10-26T01:53:59.781Z,403.13
2022-10-26T01:54:59.833Z,400.66
2022-10-26T01:55:59.760Z,400.39
2022-10-26T01:56:59.759Z,395.91
2022-10-26T01:57:59.761Z,399.26
2022-10-26T01:58:59.783Z,396.51
2022-10-26T01:59:59.738Z,398.26
2022-10-26T02:00:59.720Z,401.69
2022-10-26T02:01:59.693Z,399.82
2022-10-26T02:02:59.690Z,402.90
2022-10-26T02:03:59.755Z,401.27
2022-10-26T02:04:59.671Z,403.78
2022-10-26T02:05:59.643Z,403.90
2022-10-26T02:06:59.631Z,403.38
2022-10-26T02:07:59.633Z,402.30
2022-10-26T02:08:59.633Z,402.25
2022-10-26T02:09:59.598Z,405.08
2022-10-26T02:10:59.618Z,405.21
2022-10-26T02:11:59.588Z,405.88
2022-10-26T02:12:59.569Z,408.11
2022-10-26T02:13:59.563Z,404.75
2022-10-26T02:14:59.580Z,404.15
2022-10-26T02:15:59.538Z,404.84
2022-10-26T02:16:59.544Z,402.53
2022-10-26T02:17:59.516Z,398.98
2022-10-26T02:18:59.510Z,404.96
2022-10-26T02:19:59.503Z,403.20
2022-10-26T02:20:59.490Z,401.02
2022-10-26T02:21:59.510Z,401.30
2022-10-26T02:22:59.477Z,403.14
2022-10-26T02:23:59.510Z,404.04
2022-10-26T02:24:59.459Z,408.47
2022-10-26T02:25:59.420Z,407.45
2022-10-26T02:26:59.424Z,402.86
2022-10-26T02:27:59.401Z,403.77
2022-10-26T02:28:59.414Z,399.38
2022-10-26T02:29:59.398Z,399.13
2022-10-26T02:30:59.377Z,399.82
2022-10-26T02:31:59.367Z,401.63
2022-10-26T02:32:59.349Z,404.26
2022-10-26T02:33:59.337Z,407.10
2022-10-26T02:34:59.339Z,404.41
2022-10-26T02:35:59.319Z,407.21
2022-10-26T02:36:59.314Z,406.65
2022-10-26T02:37:59.298Z,403.48
2022-10-26T02:38:59.283Z,405.83
2022-10-26T02:39:59.277Z,405.05
2022-10-26T02:40:59.265Z,402.57
2022-10-26T02:41:59.246Z,401.13
2022-10-26T02:42:59.235Z,402.05
2022-10-26T02:43:59.222Z,403.28
2022-10-26T02:44:59.208Z,402.99
2022-10-26T02:45:59.215Z,401.86
2022-10-26T02:46:59.210Z,403.48
2022-10-26T02:47:59.194Z,404.47
2022-10-26T02:48:59.174Z,408.36
2022-10-26T02:49:59.170Z,403.23
2022-10-26T02:50:59.166Z,407.43
2022-10-26T02:51:59.139Z,403.77
2022-10-26T02:52:59.128Z,405.07
2022-10-26T02:53:59.126Z,406.24
2022-10-26T02:54:59.109Z,401.02
2022-10-26T02:55:59.094Z,406.78
2022-10-26T02:56:59.090Z,404.23
2022-10-26T02:57:59.066Z,405.74
2022-10-26T02:58:59.070Z,404.83
2022-10-26T02:59:59.098Z,404.54
2022-10-26T03:00:59.044Z,405.90
2022-10-26T03:01:59.021Z,408.39
2022-10-26T03:02:59.013Z,405.77
2022-10-26T03:03:59.062Z,406.74
2022-10-26T03:04:59.013Z,404.06
2022-10-26T03:05:58.998Z,404.95
2022-10-26T03:06:58.976Z,407.32
2022-10-26T03:07:58.962Z,405.22
2022-10-26T03:08:58.956Z,407.19
2022-10-26T03:09:58.940Z,404.80
2022-10-26T03:10:58.943Z,403.32
2022-10-26T03:11:58.911Z,407.14
2022-10-26T03:12:58.897Z,404.59
2022-10-26T03:13:58.889Z,403.14
2022-10-26T03:14:58.882Z,404.88
2022-10-26T03:15:58.878Z,405.23
2022-10-26T03:16:58.867Z,402.66
2022-10-26T03:17:58.852Z,403.52
2022-10-26T03:18:58.835Z,406.86
2022-10-26T03:19:58.834Z,405.61
2022-10-26T03:20:58.816Z,401.11
2022-10-26T03:21:58.815Z,404.73
2022-10-26T03:22:58.810Z,406.07
2022-10-26T03:23:58.787Z,403.94
2022-10-26T03:24:58.858Z,404.92
2022-10-26T03:25:58.756Z,404.14
2022-10-26T03:27:01.252Z,403.63
2022-10-26T03:27:58.739Z,401.28
2022-10-26T03:28:58.730Z,402.91
2022-10-26T03:29:58.712Z,403.92
2022-10-26T03:30:58.711Z,402.06
2022-10-26T03:31:58.691Z,403.25
2022-10-26T03:32:58.693Z,403.98
2022-10-26T03:33:58.683Z,402.59
2022-10-26T03:34:58.663Z,405.18
2022-10-26T03:35:58.666Z,405.26
2022-10-26T03:36:58.647Z,402.70
2022-10-26T03:37:58.638Z,400.11
2022-10-26T03:38:58.632Z,404.99
2022-10-26T03:39:58.609Z,405.53
2022-10-26T03:40:58.594Z,404.71
2022-10-26T03:41:58.587Z,406.31
2022-10-26T03:42:58.571Z,405.38
2022-10-26T03:43:58.558Z,404.00
2022-10-26T03:44:58.563Z,404.59
2022-10-26T03:45:58.539Z,404.34
2022-10-26T03:46:58.537Z,408.29
2022-10-26T03:47:58.527Z,402.73
2022-10-26T03:48:58.510Z,408.78
2022-10-26T03:49:58.567Z,402.99
2022-10-26T03:50:58.498Z,400.14
2022-10-26T03:51:58.474Z,399.90
2022-10-26T03:52:58.454Z,404.88
2022-10-26T03:53:58.438Z,399.45
2022-10-26T03:54:58.455Z,402.98
2022-10-26T03:55:58.483Z,401.21
2022-10-26T03:56:58.433Z,399.23
2022-10-26T03:57:58.410Z,402.85
2022-10-26T03:58:58.413Z,405.85
2022-10-26T03:59:58.402Z,407.00
2022-10-26T04:00:58.382Z,407.34
2022-10-26T04:01:58.461Z,404.07
2022-10-26T04:02:58.352Z,403.51
2022-10-26T04:03:58.472Z,404.23
2022-10-26T04:04:58.346Z,404.92
2022-10-26T04:05:58.328Z,403.55
2022-10-26T04:06:58.315Z,402.75
2022-10-26T04:07:58.296Z,406.37
2022-10-26T04:08:58.286Z,404.36
2022-10-26T04:09:58.279Z,404.76
2022-10-26T04:11:01.008Z,402.27
2022-10-26T04:11:59.248Z,405.83
2022-10-26T04:12:58.235Z,405.07
2022-10-26T04:13:58.265Z,404.42
2022-10-26T04:14:58.460Z,404.61
2022-10-26T04:15:58.202Z,401.61
2022-10-26T04:16:58.209Z,402.71
2022-10-26T04:17:58.178Z,404.75
2022-10-26T04:18:58.164Z,404.98
2022-10-26T04:19:58.202Z,406.13
2022-10-26T04:20:58.158Z,406.97
2022-10-26T04:21:58.140Z,405.64
2022-10-26T04:22:58.129Z,406.74
2022-10-26T04:23:58.151Z,402.38
2022-10-26T04:24:58.108Z,400.69
2022-10-26T04:25:58.096Z,407.04
2022-10-26T04:26:58.091Z,403.53
2022-10-26T04:27:58.070Z,407.05
2022-10-26T04:28:58.058Z,404.86
2022-10-26T04:29:58.066Z,407.39
2022-10-26T04:30:58.039Z,403.89
2022-10-26T04:31:58.028Z,406.07
2022-10-26T04:32:58.008Z,407.82
2022-10-26T04:33:57.999Z,408.13
2022-10-26T04:34:57.999Z,404.58
2022-10-26T04:35:57.993Z,406.59
2022-10-26T04:36:57.979Z,409.43
2022-10-26T04:37:57.964Z,403.48
2022-10-26T04:38:57.950Z,404.13
2022-10-26T04:39:58.344Z,404.53
2022-10-26T04:40:57.939Z,402.86
2022-10-26T04:41:57.918Z,405.84
2022-10-26T04:42:57.922Z,405.77
2022-10-26T04:43:57.903Z,407.25
2022-10-26T04:44:57.884Z,404.39
2022-10-26T04:45:57.877Z,405.07
2022-10-26T04:46:57.857Z,403.98
2022-10-26T04:47:57.851Z,405.64
2022-10-26T04:48:57.841Z,402.27
2022-10-26T04:49:57.825Z,404.32
2022-10-26T04:50:57.830Z,404.84
2022-10-26T04:51:57.821Z,405.43
2022-10-26T04:52:57.799Z,405.83
2022-10-26T04:53:57.800Z,404.61
2022-10-26T04:54:57.780Z,406.97
2022-10-26T04:55:57.763Z,402.86
2022-10-26T04:56:57.767Z,404.30
2022-10-26T04:58:00.393Z,403.29
2022-10-26T04:58:57.722Z,405.59
2022-10-26T04:59:57.717Z,402.42
2022-10-26T05:00:57.730Z,405.41
2022-10-26T05:01:57.791Z,403.62
2022-10-26T05:02:57.689Z,399.50
2022-10-26T05:03:57.678Z,405.51
2022-10-26T05:04:57.720Z,403.70
2022-10-26T05:05:57.663Z,402.25
2022-10-26T05:06:57.672Z,401.80
2022-10-26T05:07:57.649Z,402.90
2022-10-26T05:08:57.652Z,402.45
2022-10-26T05:09:57.672Z,405.79
2022-10-26T05:10:57.596Z,404.42
2022-10-26T05:11:57.601Z,405.42
2022-10-26T05:12:57.578Z,408.07
2022-10-26T05:13:57.560Z,404.71
2022-10-26T05:14:57.614Z,403.44
2022-10-26T05:15:57.542Z,402.11
2022-10-26T05:16:57.555Z,404.71
2022-10-26T05:17:57.518Z,402.13
2022-10-26T05:18:57.520Z,412.23
2022-10-26T05:19:57.500Z,402.60
2022-10-26T05:20:57.524Z,406.70
2022-10-26T05:21:57.476Z,401.32
2022-10-26T05:22:57.475Z,404.97
2022-10-26T05:23:57.477Z,416.06
2022-10-26T05:24:57.445Z,403.29
2022-10-26T05:25:57.446Z,401.22
2022-10-26T05:26:57.418Z,408.76
2022-10-26T05:27:57.429Z,406.02
2022-10-26T05:28:57.410Z,398.77
2022-10-26T05:29:57.441Z,402.60
2022-10-26T05:30:57.376Z,401.67
2022-10-26T05:31:57.368Z,404.00
2022-10-26T05:32:57.352Z,402.89
2022-10-26T05:33:57.340Z,400.63
2022-10-26T05:34:57.326Z,398.77
2022-10-26T05:35:57.335Z,404.17
2022-10-26T05:36:57.381Z,408.43
2022-10-26T05:37:57.295Z,402.66
2022-10-26T05:38:57.289Z,400.21
2022-10-26T05:39:57.277Z,408.83
2022-10-26T05:40:57.294Z,403.51
2022-10-26T05:41:57.309Z,402.94
2022-10-26T05:42:57.275Z,401.02
2022-10-26T05:43:57.234Z,401.76
2022-10-26T05:44:57.230Z,396.82
2022-10-26T05:45:57.222Z,403.87
2022-10-26T05:46:57.219Z,406.43
2022-10-26T05:48:00.021Z,405.38
2022-10-26T05:48:58.177Z,406.35
2022-10-26T05:49:57.189Z,401.26
2022-10-26T05:50:57.151Z,401.74
2022-10-26T05:51:57.152Z,403.12
2022-10-26T05:52:57.698Z,399.11
2022-10-26T05:53:57.117Z,401.01
2022-10-26T05:54:57.243Z,401.09
2022-10-26T05:55:57.097Z,400.12
2022-10-26T05:56:57.098Z,403.49
2022-10-26T05:57:57.123Z,402.36
2022-10-26T05:58:57.084Z,403.12
2022-10-26T05:59:57.054Z,401.34
2022-10-26T06:00:57.040Z,406.71
2022-10-26T06:01:57.148Z,401.80
2022-10-26T06:02:57.035Z,405.53
2022-10-26T06:03:57.021Z,405.42
2022-10-26T06:04:57.011Z,409.88
2022-10-26T06:05:56.994Z,401.60
2022-10-26T06:06:56.973Z,404.55
2022-10-26T06:07:56.976Z,403.09
2022-10-26T06:08:56.952Z,405.38
2022-10-26T06:09:56.950Z,398.60
2022-10-26T06:10:56.932Z,399.24
2022-10-26T06:11:56.927Z,401.25
2022-10-26T06:12:56.905Z,403.44
2022-10-26T06:13:57.285Z,397.96
2022-10-26T06:14:56.887Z,400.39
2022-10-26T06:15:56.885Z,400.46
2022-10-26T06:16:56.864Z,402.81
2022-10-26T06:17:56.957Z,403.91
2022-10-26T06:18:59.600Z,401.57
2022-10-26T06:19:57.841Z,403.35
2022-10-26T06:20:56.822Z,401.48
2022-10-26T06:21:56.803Z,399.90
2022-10-26T06:22:56.809Z,402.57
2022-10-26T06:23:56.814Z,398.65
2022-10-26T06:24:56.814Z,399.67
2022-10-26T06:25:56.773Z,395.73
2022-10-26T06:26:56.756Z,399.82
2022-10-26T06:27:56.746Z,398.17
2022-10-26T06:28:56.742Z,394.77
2022-10-26T06:29:56.756Z,394.72
2022-10-26T06:30:56.708Z,398.86
2022-10-26T06:31:56.696Z,397.53
2022-10-26T06:33:06.018Z,398.03
2022-10-26T06:33:57.665Z,394.39
2022-10-26T06:34:56.656Z,398.30
2022-10-26T06:35:56.659Z,400.68
2022-10-26T06:36:56.646Z,395.10
2022-10-26T06:37:56.627Z,397.12
2022-10-26T06:38:56.612Z,399.41
2022-10-26T06:39:56.612Z,395.08
2022-10-26T06:40:56.618Z,396.33
2022-10-26T06:41:56.609Z,397.57
2022-10-26T06:42:56.583Z,394.70
2022-10-26T06:43:56.570Z,395.91
2022-10-26T06:44:56.568Z,388.90
2022-10-26T06:45:56.558Z,395.48
2022-10-26T06:46:56.558Z,391.22
2022-10-26T06:47:56.522Z,388.53
2022-10-26T06:48:56.503Z,395.05
2022-10-26T06:49:56.514Z,393.87
2022-10-26T06:50:56.513Z,392.25
2022-10-26T06:51:56.475Z,394.64
2022-10-26T06:52:56.493Z,392.31
2022-10-26T06:53:56.460Z,390.13
2022-10-26T06:54:56.438Z,394.08
2022-10-26T06:55:56.434Z,389.22
2022-10-26T06:56:56.413Z,382.99
2022-10-26T06:57:56.410Z,389.00
2022-10-26T06:58:56.394Z,386.30
2022-10-26T06:59:56.383Z,389.67
2022-10-26T07:00:56.375Z,393.36
2022-10-26T07:01:56.525Z,375.69
2022-10-26T07:02:56.453Z,390.13
2022-10-26T07:03:56.340Z,390.85
2022-10-26T07:04:56.324Z,394.34
2022-10-26T07:05:56.326Z,393.27
2022-10-26T07:06:56.310Z,395.79
2022-10-26T07:07:56.304Z,388.34
2022-10-26T07:08:56.312Z,386.76
2022-10-26T07:09:56.273Z,387.19
2022-10-26T07:10:56.266Z,383.09
2022-10-26T07:11:56.271Z,384.41
2022-10-26T07:12:56.232Z,366.05
2022-10-26T07:13:56.238Z,383.54
2022-10-26T07:14:56.862Z,375.70
2022-10-26T07:15:56.205Z,380.61
2022-10-26T07:16:56.186Z,383.39
2022-10-26T07:17:56.198Z,357.29
2022-10-26T07:18:56.176Z,382.79
2022-10-26T07:19:56.183Z,378.18
2022-10-26T07:20:56.148Z,352.09
2022-10-26T07:21:56.144Z,382.00
2022-10-26T07:22:56.138Z,380.03
2022-10-26T07:23:56.135Z,380.49
2022-10-26T07:24:58.092Z,381.76
2022-10-26T07:25:56.111Z,367.16
2022-10-26T07:26:56.087Z,380.83
2022-10-26T07:27:56.086Z,364.08
2022-10-26T07:28:56.077Z,375.33
2022-10-26T07:29:56.066Z,373.80
2022-10-26T07:30:56.327Z,387.27
2022-10-26T07:31:56.033Z,381.18
2022-10-26T07:32:56.016Z,374.15
2022-10-26T07:33:56.727Z,383.97
2022-10-26T07:34:56.778Z,373.08
2022-10-26T07:35:56.019Z,351.43
2022-10-26T07:36:56.004Z,361.00
2022-10-26T07:37:55.966Z,361.56
2022-10-26T07:38:55.947Z,385.39
2022-10-26T07:39:55.953Z,365.22
2022-10-26T07:40:55.939Z,357.39
2022-10-26T07:41:55.942Z,386.90
2022-10-26T07:42:55.920Z,377.06
2022-10-26T07:43:55.893Z,386.10
2022-10-26T07:44:55.909Z,383.87
2022-10-26T07:45:55.890Z,376.08
2022-10-26T07:46:55.901Z,377.51
2022-10-26T07:47:55.858Z,372.16
2022-10-26T07:48:55.854Z,383.20
2022-10-26T07:49:55.835Z,379.83
2022-10-26T07:50:55.819Z,379.92
2022-10-26T07:51:55.814Z,352.47
2022-10-26T07:52:55.800Z,380.68
2022-10-26T07:53:55.803Z,373.68
2022-10-26T07:54:55.767Z,377.79
2022-10-26T07:55:55.755Z,382.05
2022-10-26T07:56:55.791Z,351.65
2022-10-26T07:57:56.162Z,383.98
2022-10-26T07:58:55.759Z,342.34
2022-10-26T07:59:55.741Z,348.93
2022-10-26T08:00:55.763Z,363.10
2022-10-26T08:01:55.860Z,361.98
2022-10-26T08:02:55.679Z,336.22
2022-10-26T08:03:55.671Z,381.95
2022-10-26T08:04:55.810Z,356.55
2022-10-26T08:05:55.653Z,381.39
2022-10-26T08:06:55.641Z,378.85
2022-10-26T08:07:55.626Z,388.78
2022-10-26T08:08:55.620Z,388.70
2022-10-26T08:09:55.639Z,365.56
2022-10-26T08:10:55.592Z,396.77
2022-10-26T08:11:55.691Z,380.01
2022-10-26T08:12:55.573Z,384.39
2022-10-26T08:13:55.578Z,351.18
2022-10-26T08:14:55.573Z,393.46
2022-10-26T08:15:55.539Z,395.71
2022-10-26T08:16:55.530Z,337.66
2022-10-26T08:17:55.583Z,341.67
2022-10-26T08:18:55.508Z,384.13
2022-10-26T08:19:55.500Z,344.85
2022-10-26T08:21:01.799Z,383.07
2022-10-26T08:21:56.479Z,353.26
2022-10-26T08:22:55.465Z,377.08
2022-10-26T08:23:55.447Z,399.36
2022-10-26T08:24:55.451Z,375.10
2022-10-26T08:25:55.435Z,352.73
2022-10-26T08:26:55.449Z,396.59
2022-10-26T08:27:55.407Z,364.99
2022-10-26T08:28:55.433Z,399.19
2022-10-26T08:29:55.414Z,358.44
2022-10-26T08:30:55.374Z,400.20
2022-10-26T08:31:55.384Z,363.21
2022-10-26T08:32:55.354Z,392.88
2022-10-26T08:33:55.334Z,381.92
2022-10-26T08:34:55.322Z,377.04
2022-10-26T08:35:55.326Z,368.12
2022-10-26T08:36:55.310Z,397.37
2022-10-26T08:37:55.333Z,374.94
2022-10-26T08:38:55.319Z,369.93
2022-10-26T08:39:56.638Z,392.56
2022-10-26T08:40:55.269Z,401.18
2022-10-26T08:41:55.250Z,377.73
2022-10-26T08:42:55.245Z,397.63
2022-10-26T08:43:55.424Z,398.19
2022-10-26T08:44:55.233Z,399.91
2022-10-26T08:45:55.214Z,380.06
2022-10-26T08:46:55.229Z,387.54
2022-10-26T08:47:55.183Z,404.59
2022-10-26T08:48:55.174Z,368.96
2022-10-26T08:49:55.195Z,390.85
2022-10-26T08:50:55.168Z,364.84
2022-10-26T08:51:55.156Z,396.49
2022-10-26T08:52:55.184Z,410.03
2022-10-26T08:53:55.114Z,406.84
2022-10-26T08:54:55.106Z,394.08
2022-10-26T08:55:55.120Z,387.17
2022-10-26T08:56:55.089Z,381.06
2022-10-26T08:57:55.120Z,380.48
2022-10-26T08:58:55.063Z,380.45
2022-10-26T08:59:55.054Z,409.03
2022-10-26T09:00:55.092Z,370.28
2022-10-26T09:01:55.091Z,365.89
2022-10-26T09:02:55.021Z,410.96
2022-10-26T09:03:55.052Z,406.08
2022-10-26T09:04:54.992Z,403.46
2022-10-26T09:05:54.987Z,390.01
2022-10-26T09:06:55.008Z,385.60
2022-10-26T09:07:54.974Z,405.96
2022-10-26T09:08:54.955Z,391.56
2022-10-26T09:09:54.942Z,402.58
2022-10-26T09:10:54.951Z,388.29
2022-10-26T09:11:54.942Z,406.20
2022-10-26T09:12:54.913Z,414.34
2022-10-26T09:13:57.598Z,384.79
2022-10-26T09:14:54.880Z,403.40
2022-10-26T09:15:54.890Z,399.32
2022-10-26T09:16:54.869Z,375.26
2022-10-26T09:17:54.872Z,409.73
2022-10-26T09:18:57.736Z,375.81
2022-10-26T09:19:55.836Z,414.13
2022-10-26T09:20:54.880Z,370.81
2022-10-26T09:21:54.811Z,412.73
2022-10-26T09:22:54.806Z,404.09
2022-10-26T09:23:54.788Z,400.51
2022-10-26T09:24:54.791Z,403.64
2022-10-26T09:25:54.768Z,348.76
2022-10-26T09:26:54.823Z,397.35
2022-10-26T09:27:54.746Z,398.68
2022-10-26T09:28:54.736Z,398.42
2022-10-26T09:29:54.720Z,403.01
2022-10-26T09:30:54.732Z,419.56
2022-10-26T09:31:54.755Z,399.28
2022-10-26T09:32:54.703Z,368.68
2022-10-26T09:33:54.680Z,387.97
2022-10-26T09:34:54.677Z,421.15
2022-10-26T09:35:54.659Z,417.99
2022-10-26T09:36:54.667Z,403.16
2022-10-26T09:37:54.635Z,415.76
2022-10-26T09:38:54.638Z,398.65
2022-10-26T09:39:54.618Z,410.04
2022-10-26T09:40:54.602Z,411.41
2022-10-26T09:41:54.600Z,417.99
2022-10-26T09:42:54.606Z,414.04
2022-10-26T09:43:54.576Z,406.80
2022-10-26T09:44:54.558Z,418.80
2022-10-26T09:45:54.582Z,401.00
2022-10-26T09:46:54.538Z,409.35
2022-10-26T09:47:54.525Z,417.92
2022-10-26T09:48:54.540Z,407.36
2022-10-26T09:49:54.508Z,421.07
2022-10-26T09:50:54.487Z,399.21
2022-10-26T09:51:54.475Z,415.16
2022-10-26T09:52:54.480Z,388.63
2022-10-26T09:53:54.458Z,424.39
2022-10-26T09:54:54.449Z,395.33
2022-10-26T09:55:54.436Z,413.96
2022-10-26T09:56:54.428Z,422.89
2022-10-26T09:57:54.424Z,422.43
2022-10-26T09:58:54.415Z,401.66
2022-10-26T09:59:54.396Z,417.88
2022-10-26T10:00:54.378Z,398.12
2022-10-26T10:01:54.488Z,429.97
2022-10-26T10:02:54.558Z,395.65
2022-10-26T10:03:54.359Z,423.11
2022-10-26T10:04:54.334Z,415.79
2022-10-26T10:05:54.327Z,421.56
2022-10-26T10:06:54.313Z,419.08
2022-10-26T10:07:54.298Z,427.08
2022-10-26T10:09:54.284Z,404.23
2022-10-26T10:10:54.268Z,426.04
2022-10-26T10:11:54.254Z,420.80
2022-10-26T10:12:54.245Z,425.01
2022-10-26T10:13:54.872Z,423.46
2022-10-26T10:14:54.240Z,395.25
2022-10-26T10:15:54.212Z,411.95
2022-10-26T10:16:54.234Z,402.26
2022-10-26T10:17:54.597Z,432.32
2022-10-26T10:18:54.176Z,420.10
2022-10-26T10:19:54.163Z,426.03
2022-10-26T10:20:54.171Z,412.42
2022-10-26T10:21:54.142Z,422.64
2022-10-26T10:22:54.144Z,418.44
2022-10-26T10:23:54.135Z,414.56
2022-10-26T10:24:54.141Z,417.12
2022-10-26T10:25:54.121Z,426.17
2022-10-26T10:26:54.113Z,420.87
2022-10-26T10:27:54.076Z,418.46
2022-10-26T10:28:54.077Z,421.18
2022-10-26T10:29:54.057Z,395.37
2022-10-26T10:30:54.046Z,409.19
2022-10-26T10:31:54.057Z,426.78
2022-10-26T10:32:54.248Z,428.09
2022-10-26T10:33:54.021Z,416.81
2022-10-26T10:34:54.031Z,410.44
2022-10-26T10:35:53.988Z,427.56
2022-10-26T10:36:53.977Z,420.37
2022-10-26T10:37:53.966Z,423.83
2022-10-26T10:38:53.979Z,391.68
2022-10-26T10:39:53.968Z,421.76
2022-10-26T10:40:53.934Z,402.03
2022-10-26T10:41:53.926Z,405.85
2022-10-26T10:42:54.035Z,428.56
2022-10-26T10:43:53.903Z,413.43
2022-10-26T10:44:53.908Z,426.89
2022-10-26T10:45:55.859Z,427.02
2022-10-26T10:46:53.861Z,435.92
2022-10-26T10:47:53.860Z,417.71
2022-10-26T10:48:53.842Z,421.44
2022-10-26T10:49:53.854Z,423.24
2022-10-26T10:50:53.820Z,417.88
2022-10-26T10:51:53.809Z,418.23
2022-10-26T10:52:53.819Z,416.55
2022-10-26T10:53:53.803Z,410.38
2022-10-26T10:54:53.797Z,425.72
2022-10-26T10:55:53.771Z,425.83
2022-10-26T10:56:53.762Z,410.45
2022-10-26T10:57:53.744Z,418.22
2022-10-26T10:58:53.736Z,428.22
2022-10-26T10:59:53.742Z,416.09
2022-10-26T11:00:53.713Z,401.22
2022-10-26T11:01:53.817Z,400.86
2022-10-26T11:02:53.709Z,428.80
2022-10-26T11:03:53.673Z,425.06
2022-10-26T11:04:53.668Z,426.43
2022-10-26T11:05:53.652Z,403.46
2022-10-26T11:06:53.655Z,405.12
2022-10-26T11:07:53.631Z,409.68
2022-10-26T11:08:53.621Z,425.93
2022-10-26T11:10:53.617Z,424.96
2022-10-26T11:11:53.596Z,411.41
2022-10-26T11:12:53.579Z,429.95
2022-10-26T11:13:53.577Z,420.96
2022-10-26T11:14:53.557Z,421.21
2022-10-26T11:15:53.568Z,417.88
2022-10-26T11:16:53.532Z,405.74
2022-10-26T11:17:53.532Z,423.44
2022-10-26T11:18:53.540Z,427.02
2022-10-26T11:19:53.497Z,413.78
2022-10-26T11:20:53.546Z,409.71
2022-10-26T11:21:53.494Z,424.65
2022-10-26T11:22:53.799Z,432.93
2022-10-26T11:23:53.497Z,422.48
2022-10-26T11:24:53.534Z,427.85
2022-10-26T11:25:53.436Z,422.41
2022-10-26T11:26:53.421Z,436.66
2022-10-26T11:27:53.398Z,391.08
2022-10-26T11:28:53.403Z,434.32
2022-10-26T11:29:53.382Z,416.86
2022-10-26T11:30:53.378Z,432.50
2022-10-26T11:31:53.363Z,433.29
2022-10-26T11:32:53.352Z,420.22
2022-10-26T11:33:53.410Z,414.45
2022-10-26T11:34:53.348Z,429.01
2022-10-26T11:35:53.317Z,429.12
2022-10-26T11:36:53.314Z,428.24
2022-10-26T11:37:53.310Z,424.25
2022-10-26T11:38:57.339Z,422.54
2022-10-26T11:39:53.308Z,436.20
2022-10-26T11:40:53.286Z,436.50
2022-10-26T11:41:53.290Z,422.75
2022-10-26T11:42:53.253Z,437.05
2022-10-26T11:43:53.254Z,434.47
2022-10-26T11:44:53.304Z,419.71
2022-10-26T11:45:53.313Z,428.87
2022-10-26T11:46:53.218Z,434.45
2022-10-26T11:47:53.375Z,437.12
2022-10-26T11:48:53.177Z,438.80
2022-10-26T11:49:53.165Z,430.44
2022-10-26T11:50:53.169Z,429.15
2022-10-26T11:51:53.149Z,441.04
2022-10-26T11:52:53.385Z,434.04
2022-10-26T11:53:53.132Z,439.35
2022-10-26T11:54:53.121Z,436.78
2022-10-26T11:55:53.158Z,437.29
2022-10-26T11:56:53.898Z,433.51
2022-10-26T11:57:53.166Z,447.45
2022-10-26T11:58:53.130Z,436.37
2022-10-26T11:59:53.060Z,416.03
2022-10-26T12:00:53.064Z,432.79
2022-10-26T12:01:53.064Z,437.62
2022-10-26T12:02:53.046Z,430.89
2022-10-26T12:03:53.012Z,441.41
2022-10-26T12:04:53.011Z,441.41
2022-10-26T12:05:53.103Z,430.36
2022-10-26T12:06:52.979Z,421.84
2022-10-26T12:07:53.214Z,437.26
2022-10-26T12:08:52.962Z,436.78
2022-10-26T12:09:52.957Z,441.09
2022-10-26T12:10:52.943Z,422.55
2022-10-26T12:11:52.925Z,443.73
2022-10-26T12:12:53.164Z,435.31
2022-10-26T12:13:52.906Z,444.43
2022-10-26T12:14:52.902Z,431.24
2022-10-26T12:16:08.211Z,417.20
2022-10-26T12:16:53.882Z,446.21
2022-10-26T12:17:52.893Z,421.79
2022-10-26T12:18:55.998Z,440.81
2022-10-26T12:19:53.341Z,446.20
2022-10-26T12:20:52.836Z,437.92
2022-10-26T12:21:52.813Z,432.49
2022-10-26T12:22:52.837Z,439.69
2022-10-26T12:23:52.803Z,442.94
2022-10-26T12:24:52.791Z,434.52
2022-10-26T12:25:52.772Z,445.07
2022-10-26T12:26:52.784Z,445.36
2022-10-26T12:27:52.754Z,434.60
2022-10-26T12:28:54.636Z,433.56
2022-10-26T12:29:52.729Z,433.20
2022-10-26T12:30:52.742Z,446.88